Time;durP1;ratioP1;P1;durP2;ratioP2;P2;SDS_P1;SDS_P2;PMS_P1;PMS_P2;Temp;Humidity;BMP_temperature;BMP_pressure;BME280_temperature;BME280_humidity;BME280_pressure;Samples;Min_cycle;Max_cycle;Signal;HPM_P1;HPM_P2
2022/06/23 00:01:26;;;;;;;3.70;3.00;;;15.00;99.90;;;;;;5016616;28;20045;-64
2022/06/23 00:03:56;;;;;;;4.95;3.30;;;15.00;99.90;;;;;;5033541;28;20068;-64
2022/06/23 00:06:33;;;;;;;3.53;3.10;;;15.00;99.90;;;;;;5017347;28;20041;-64
2022/06/23 00:08:59;;;;;;;4.43;3.55;;;15.00;99.90;;;;;;5018285;28;20040;-65
2022/06/23 00:11:27;;;;;;;5.25;3.83;;;15.00;99.90;;;;;;5033200;28;20041;-64
2022/06/23 00:14:06;;;;;;;6.05;3.63;;;15.00;99.90;;;;;;5032074;28;20048;-65
2022/06/23 00:16:32;;;;;;;4.45;3.40;;;15.00;99.90;;;;;;5061306;28;20135;-65
2022/06/23 00:18:57;;;;;;;5.30;3.70;;;14.90;99.90;;;;;;5073920;28;20115;-63
2022/06/23 00:21:31;;;;;;;5.53;3.67;;;14.90;99.90;;;;;;5075194;28;20152;-64
2022/06/23 00:24:02;;;;;;;7.70;3.60;;;14.90;99.90;;;;;;5073755;28;20044;-65
2022/06/23 00:26:32;;;;;;;4.13;3.38;;;14.90;99.90;;;;;;5074984;28;20044;-64
2022/06/23 00:29:11;;;;;;;4.32;3.55;;;14.90;99.90;;;;;;5073192;28;20036;-65
2022/06/23 00:31:53;;;;;;;4.18;3.38;;;14.80;99.90;;;;;;5073513;28;20044;-64
2022/06/23 00:34:22;;;;;;;4.93;3.30;;;14.80;99.90;;;;;;5074810;28;20076;-65
2022/06/23 00:36:51;;;;;;;5.05;3.45;;;14.70;99.90;;;;;;5073773;28;20033;-64
2022/06/23 00:39:35;;;;;;;4.65;3.65;;;14.70;99.90;;;;;;5072091;28;20399;-65
2022/06/23 00:42:03;;;;;;;5.50;3.20;;;14.60;99.90;;;;;;5073537;28;20522;-63
2022/06/23 00:44:31;;;;;;;4.93;3.47;;;14.60;99.90;;;;;;5069272;28;20033;-64
2022/06/23 00:47:02;;;;;;;5.43;3.40;;;14.60;99.90;;;;;;5070588;28;20048;-65
2022/06/23 00:49:51;;;;;;;5.22;3.60;;;14.60;99.90;;;;;;5073636;28;20044;-64
2022/06/23 00:52:33;;;;;;;6.00;3.72;;;14.50;99.90;;;;;;5073378;28;20106;-65
2022/06/23 00:55:04;;;;;;;5.80;3.65;;;14.50;99.90;;;;;;5070274;28;21455;-63
2022/06/23 00:57:46;;;;;;;4.13;3.42;;;14.50;99.90;;;;;;5070755;28;20037;-64
2022/06/23 01:00:14;;;;;;;4.33;3.30;;;14.50;99.90;;;;;;5069976;28;20052;-64
2022/06/23 01:03:17;;;;;;;5.18;3.30;;;14.40;99.90;;;;;;5070081;28;20052;-65
2022/06/23 01:05:48;;;;;;;;;;;14.40;99.90;;;;;;5012396;28;20136;-64
2022/06/23 01:08:28;;;;;;;4.22;3.40;;;14.40;99.90;;;;;;5013479;28;19974;-63
2022/06/23 01:11:18;;;;;;;5.28;3.65;;;14.30;99.90;;;;;;5027762;28;20052;-65
2022/06/23 01:14:06;;;;;;;8.20;4.30;;;14.30;99.90;;;;;;5012765;28;20043;-65
2022/06/23 01:16:52;;;;;;;4.63;3.60;;;14.30;99.90;;;;;;5012929;28;20432;-64
2022/06/23 01:19:20;;;;;;;5.15;3.70;;;14.30;99.90;;;;;;5029583;28;20041;-64
2022/06/23 01:21:53;;;;;;;6.53;4.15;;;14.30;99.90;;;;;;4997195;28;20148;-63
2022/06/23 01:24:28;;;;;;;;;;;14.30;99.90;;;;;;5029127;28;20060;-64
2022/06/23 01:27:20;;;;;;;6.40;4.00;;;14.20;99.90;;;;;;5012696;28;19917;-65
2022/06/23 01:30:05;;;;;;;4.88;4.00;;;14.20;99.90;;;;;;5012537;28;20053;-64
2022/06/23 01:32:56;;;;;;;5.97;4.32;;;14.20;99.90;;;;;;5016254;28;20041;-64
2022/06/23 01:35:24;;;;;;;6.72;4.32;;;14.20;99.90;;;;;;5027333;28;20136;-64
2022/06/23 01:37:56;;;;;;;4.78;4.15;;;14.20;99.90;;;;;;5029372;28;20068;-64
2022/06/23 01:40:48;;;;;;;6.82;4.18;;;14.10;99.90;;;;;;5028380;28;20095;-64
2022/06/23 01:43:17;;;;;;;4.68;4.18;;;14.20;99.90;;;;;;5056670;28;20056;-64
2022/06/23 01:45:52;;;;;;;5.18;4.20;;;14.10;99.90;;;;;;5069306;28;20491;-63
2022/06/23 01:51:05;;;;;;;6.28;4.18;;;14.10;99.90;;;;;;5069829;28;20487;-64
2022/06/23 01:53:33;;;;;;;6.18;4.05;;;14.10;99.90;;;;;;5070418;28;20079;-64
2022/06/23 01:56:23;;;;;;;5.85;4.63;;;14.10;99.90;;;;;;5069981;28;20044;-64
2022/06/23 01:58:53;;;;;;;5.50;3.83;;;14.00;99.90;;;;;;5067413;28;20044;-64
2022/06/23 02:01:35;;;;;;;6.15;4.22;;;14.00;99.90;;;;;;5069156;28;20123;-65
2022/06/23 02:04:42;;;;;;;5.97;3.95;;;14.00;99.90;;;;;;5070201;28;20439;-64
2022/06/23 02:07:21;;;;;;;5.53;4.88;;;14.00;99.90;;;;;;5068996;28;20033;-64
2022/06/23 02:09:53;;;;;;;7.32;4.63;;;14.00;99.90;;;;;;5069075;28;20373;-64
2022/06/23 02:12:30;;;;;;;5.60;4.70;;;14.00;99.90;;;;;;5070255;28;20526;-64
2022/06/23 02:14:56;;;;;;;6.15;4.40;;;13.90;99.90;;;;;;5069202;28;20135;-64
2022/06/23 02:17:31;;;;;;;5.40;4.82;;;13.90;99.90;;;;;;5068018;28;20123;-64
2022/06/23 02:20:14;;;;;;;6.28;4.35;;;13.90;99.90;;;;;;5070990;28;20041;-64
2022/06/23 02:22:44;;;;;;;5.43;4.72;;;13.80;99.90;;;;;;5070897;28;20056;-64
2022/06/23 02:25:27;;;;;;;8.95;5.05;;;13.80;99.90;;;;;;5069205;28;20521;-65
2022/06/23 02:28:17;;;;;;;5.55;4.47;;;13.80;99.90;;;;;;5069134;28;20498;-64
2022/06/23 02:30:51;;;;;;;7.88;4.28;;;13.80;99.90;;;;;;5027881;28;20045;-64
2022/06/23 02:33:36;;;;;;;4.95;4.20;;;13.70;99.90;;;;;;5011243;28;20415;-64
2022/06/23 02:36:20;;;;;;;5.82;4.43;;;13.70;99.90;;;;;;5010796;28;20061;-64
2022/06/23 02:39:00;;;;;;;6.03;4.75;;;13.70;99.90;;;;;;5009607;28;20527;-65
2022/06/23 02:41:33;;;;;;;5.50;4.32;;;13.60;99.90;;;;;;5026470;28;20041;-63
2022/06/23 02:44:17;;;;;;;7.60;4.60;;;13.60;99.90;;;;;;5010547;28;20191;-65
2022/06/23 02:47:07;;;;;;;6.28;5.00;;;13.60;99.90;;;;;;5028170;28;20136;-65
2022/06/23 02:49:44;;;;;;;7.20;4.82;;;13.50;99.90;;;;;;5020652;28;20455;-63
2022/06/23 02:52:44;;;;;;;5.90;4.97;;;13.50;99.90;;;;;;5011459;28;20041;-64
2022/06/23 02:55:37;;;;;;;5.75;4.80;;;13.50;99.90;;;;;;5011410;28;20053;-64
2022/06/23 02:58:12;;;;;;;5.72;4.55;;;13.40;99.90;;;;;;5010575;28;20041;-65
2022/06/23 03:00:47;;;;;;;5.63;5.10;;;13.40;99.90;;;;;;5008882;28;20069;-63
2022/06/23 03:03:22;;;;;;;7.65;4.95;;;13.40;99.90;;;;;;5011140;28;20130;-64
2022/06/23 03:05:51;;;;;;;6.45;5.07;;;13.30;99.90;;;;;;5009587;28;20076;-65
2022/06/23 03:09:05;;;;;;;5.60;4.47;;;13.30;99.90;;;;;;5066870;28;20143;-65
2022/06/23 03:11:54;;;;;;;5.30;4.50;;;13.30;99.90;;;;;;5010888;28;20136;-65
2022/06/23 03:14:40;;;;;;;6.30;5.10;;;13.20;99.90;;;;;;5026345;28;20037;-64
2022/06/23 03:17:27;;;;;;;5.90;5.20;;;13.20;99.90;;;;;;5028028;28;20504;-65
2022/06/23 03:20:08;;;;;;;5.55;5.05;;;13.20;99.90;;;;;;5026568;28;20052;-63
2022/06/23 03:22:48;;;;;;;6.18;5.57;;;13.20;99.90;;;;;;5010604;28;20045;-64
2022/06/23 03:25:42;;;;;;;7.38;5.60;;;13.20;99.90;;;;;;5009740;28;20065;-63
2022/06/23 03:28:29;;;;;;;6.07;5.25;;;13.20;99.90;;;;;;5025609;28;20045;-65
2022/06/23 03:31:01;;;;;;;6.60;5.80;;;13.20;99.90;;;;;;5010048;28;20041;-62
2022/06/23 03:33:44;;;;;;;6.77;5.90;;;13.20;99.90;;;;;;5026230;28;20048;-64
2022/06/23 03:36:30;;;;;;;6.03;5.38;;;13.10;99.90;;;;;;5025578;28;20044;-64
2022/06/23 03:42:18;;;;;;;6.95;5.72;;;13.10;99.90;;;;;;5026987;28;20451;-64
2022/06/23 03:44:55;;;;;;;7.70;5.57;;;13.20;99.90;;;;;;5010113;28;20113;-64
2022/06/23 03:47:44;;;;;;;8.88;6.55;;;13.10;99.90;;;;;;5028250;28;20565;-65
2022/06/23 03:50:28;;;;;;;6.57;5.90;;;13.10;99.90;;;;;;5068970;28;20040;-64
2022/06/23 03:53:01;;;;;;;7.60;6.35;;;13.20;99.90;;;;;;5066404;28;20040;-64
2022/06/23 03:55:36;;;;;;;9.18;6.32;;;13.20;99.90;;;;;;5068369;28;20496;-64
2022/06/23 03:58:10;;;;;;;7.63;5.90;;;13.30;99.90;;;;;;5067664;28;20048;-64
2022/06/23 04:00:41;;;;;;;9.38;6.90;;;13.30;99.90;;;;;;5068108;28;20048;-64
2022/06/23 04:03:22;;;;;;;8.93;6.70;;;13.40;99.90;;;;;;5067339;28;20036;-63
2022/06/23 04:05:57;;;;;;;7.70;6.25;;;13.40;99.90;;;;;;5067208;28;20395;-65
2022/06/23 04:08:28;;;;;;;8.57;6.22;;;13.50;99.90;;;;;;5067560;28;20051;-64
2022/06/23 04:10:58;;;;;;;7.07;6.10;;;13.50;99.90;;;;;;5068064;28;20036;-65
2022/06/23 04:13:30;;;;;;;9.07;7.13;;;13.60;99.90;;;;;;5069399;28;20054;-64
2022/06/23 04:16:03;;;;;;;10.13;7.03;;;13.60;99.90;;;;;;5066110;28;20068;-64
2022/06/23 04:18:31;;;;;;;8.88;6.72;;;13.70;99.90;;;;;;5069299;28;20070;-64
2022/06/23 04:21:07;;;;;;;7.95;6.50;;;13.80;99.90;;;;;;5067964;28;20120;-64
2022/06/23 04:23:40;;;;;;;7.38;6.43;;;13.80;99.90;;;;;;5068144;28;20037;-65
2022/06/23 04:26:18;;;;;;;8.60;6.43;;;13.90;99.90;;;;;;5066198;28;20059;-63
2022/06/23 04:28:44;;;;;;;9.50;6.72;;;14.00;99.90;;;;;;5067750;28;20051;-65
2022/06/23 04:31:16;;;;;;;8.57;6.40;;;14.10;99.90;;;;;;5067632;28;20045;-64
2022/06/23 04:33:43;;;;;;;11.88;6.35;;;14.20;99.90;;;;;;5069193;28;20048;-64
2022/06/23 04:36:25;;;;;;;9.18;6.07;;;14.30;99.90;;;;;;5071362;28;20447;-65
2022/06/23 04:39:06;;;;;;;9.27;6.20;;;14.40;99.90;;;;;;5071741;28;20124;-65
2022/06/23 04:41:48;;;;;;;8.65;6.47;;;14.40;99.90;;;;;;5070961;28;20043;-64
2022/06/23 04:44:28;;;;;;;8.27;5.93;;;14.50;99.90;;;;;;5069935;28;20048;-63
2022/06/23 04:47:19;;;;;;;7.85;6.53;;;14.60;99.90;;;;;;5072468;28;20071;-64
2022/06/23 04:49:56;;;;;;;7.75;6.28;;;14.70;99.90;;;;;;5065333;28;20044;-63
2022/06/23 04:52:41;;;;;;;6.95;6.03;;;14.80;99.90;;;;;;5070675;28;20544;-64
2022/06/23 04:55:09;;;;;;;7.28;6.18;;;14.80;99.90;;;;;;5070368;28;20119;-63
2022/06/23 04:57:47;;;;;;;8.90;6.57;;;14.90;99.90;;;;;;5071190;28;20491;-64
2022/06/23 05:00:42;;;;;;;7.57;6.00;;;15.00;99.90;;;;;;5072590;28;20448;-65
2022/06/23 05:03:32;;;;;;;7.50;6.32;;;15.10;99.90;;;;;;5071446;28;20107;-64
2022/06/23 05:06:19;;;;;;;7.40;6.60;;;15.20;99.90;;;;;;5069960;28;20540;-64
2022/06/23 05:08:47;;;;;;;8.40;5.90;;;15.20;99.90;;;;;;5071143;28;20123;-65
2022/06/23 05:11:34;;;;;;;7.00;6.28;;;15.30;99.90;;;;;;5069587;28;20040;-64
2022/06/23 05:14:26;;;;;;;7.70;6.20;;;15.40;99.90;;;;;;5071195;28;20518;-63
2022/06/23 05:16:56;;;;;;;9.30;6.68;;;15.50;99.90;;;;;;5070135;28;20052;-64
2022/06/23 05:19:37;;;;;;;8.30;6.15;;;15.70;99.90;;;;;;5072309;28;20032;-63
2022/06/23 05:22:17;;;;;;;8.63;6.43;;;15.80;99.90;;;;;;5070980;28;20055;-64
2022/06/23 05:24:45;;;;;;;7.68;6.03;;;15.90;99.90;;;;;;5070691;28;20036;-64
2022/06/23 05:27:31;;;;;;;7.80;6.55;;;16.00;99.90;;;;;;5071250;28;20115;-64
2022/06/23 05:30:18;;;;;;;7.55;6.65;;;16.10;99.90;;;;;;5071965;28;20036;-64
2022/06/23 05:32:50;;;;;;;10.93;6.55;;;16.20;99.90;;;;;;5070872;28;20093;-65
2022/06/23 05:35:21;;;;;;;7.28;6.03;;;16.30;99.90;;;;;;5069375;28;20051;-64
2022/06/23 05:37:56;;;;;;;8.20;6.13;;;16.50;99.90;;;;;;5083337;28;20060;-64
2022/06/23 05:40:34;;;;;;;7.50;5.93;;;16.60;99.90;;;;;;5071665;28;20072;-64
2022/06/23 05:43:02;;;;;;;8.73;6.85;;;16.80;99.90;;;;;;5069687;28;20128;-64
2022/06/23 05:45:38;;;;;;;7.63;6.40;;;16.90;99.90;;;;;;5070490;28;20036;-64
2022/06/23 05:48:07;;;;;;;10.45;6.57;;;17.10;99.90;;;;;;5070411;28;20503;-64
2022/06/23 05:50:48;;;;;;;8.93;6.30;;;17.20;99.90;;;;;;5071634;28;20037;-64
2022/06/23 05:53:26;;;;;;;9.57;6.68;;;17.30;99.90;;;;;;5070537;28;20052;-64
2022/06/23 05:56:02;;;;;;;8.88;6.25;;;17.40;99.90;;;;;;5069118;28;20526;-64
2022/06/23 05:58:46;;;;;;;7.65;5.65;;;17.50;99.90;;;;;;5068942;28;20052;-64
2022/06/23 06:01:31;;;;;;;6.78;5.53;;;17.70;99.90;;;;;;5067976;28;20069;-64
2022/06/23 06:04:05;;;;;;;7.63;5.43;;;17.80;99.90;;;;;;5071156;28;20036;-65
2022/06/23 06:06:33;;;;;;;7.82;5.90;;;18.00;99.90;;;;;;5069976;28;20558;-65
2022/06/23 06:11:52;;;;;;;6.97;6.05;;;18.20;99.90;;;;;;5086919;28;20510;-64
2022/06/23 06:14:22;;;;;;;9.68;5.53;;;18.40;99.90;;;;;;5070981;28;20479;-65
2022/06/23 06:16:48;;;;;;;8.38;5.90;;;18.60;99.90;;;;;;5065800;28;20037;-63
2022/06/23 06:19:19;;;;;;;7.80;6.13;;;18.70;99.90;;;;;;5068389;28;20120;-64
2022/06/23 06:21:47;;;;;;;10.27;5.45;;;18.90;99.90;;;;;;5066236;28;20044;-65
2022/06/23 06:24:28;;;;;;;10.02;6.03;;;19.00;99.90;;;;;;5069564;28;20044;-65
2022/06/23 06:26:55;;;;;;;6.00;5.40;;;19.20;99.90;;;;;;5068961;28;20047;-64
2022/06/23 06:29:26;;;;;;;7.45;5.25;;;19.30;99.90;;;;;;5065922;28;20477;-63
2022/06/23 06:31:59;;;;;;;7.57;5.97;;;19.50;99.90;;;;;;5069585;28;20032;-64
2022/06/23 06:34:33;;;;;;;7.65;5.65;;;19.60;99.90;;;;;;5067284;28;20170;-65
2022/06/23 06:36:58;;;;;;;7.47;6.10;;;19.80;99.90;;;;;;5067738;28;20462;-65
2022/06/23 06:39:38;;;;;;;7.43;5.55;;;19.90;99.90;;;;;;5050864;28;20041;-64
2022/06/23 06:42:07;;;;;;;8.07;5.78;;;19.90;99.90;;;;;;5067978;28;20052;-64
2022/06/23 06:44:36;;;;;;;6.88;5.50;;;20.00;99.90;;;;;;5069250;28;20048;-64
2022/06/23 06:47:02;;;;;;;12.25;5.50;;;20.10;99.90;;;;;;5066823;28;20044;-64
2022/06/23 06:49:29;;;;;;;7.10;5.30;;;20.20;99.90;;;;;;5068430;28;20103;-65
2022/06/23 06:51:56;;;;;;;7.50;5.50;;;20.30;99.90;;;;;;5068596;28;20028;-64
2022/06/23 06:54:33;;;;;;;7.40;5.15;;;20.40;99.90;;;;;;5067471;28;20060;-63
2022/06/23 06:57:04;;;;;;;7.47;5.03;;;20.60;99.90;;;;;;5067875;28;20033;-63
2022/06/23 07:00:08;;;;;;;7.00;5.07;;;20.70;99.90;;;;;;5068841;28;20113;-63
2022/06/23 07:02:38;;;;;;;7.82;5.35;;;20.80;99.90;;;;;;5027541;28;20058;-65
2022/06/23 07:05:28;;;;;;;7.82;4.75;;;21.00;99.90;;;;;;5027265;28;20123;-65
2022/06/23 07:08:01;;;;;;;8.40;4.60;;;21.10;99.90;;;;;;5026434;28;20057;-64
2022/06/23 07:10:35;;;;;;;9.40;5.38;;;21.20;99.90;;;;;;5026241;28;20037;-64
2022/06/23 07:13:09;;;;;;;7.10;4.50;;;21.40;99.90;;;;;;5007486;28;20049;-65
2022/06/23 07:15:45;;;;;;;9.05;4.95;;;21.60;99.90;;;;;;5026957;28;20048;-64
2022/06/23 07:18:23;;;;;;;6.43;4.82;;;21.70;99.90;;;;;;5010230;28;20061;-64
2022/06/23 07:21:17;;;;;;;7.50;5.32;;;22.00;99.90;;;;;;5027071;28;20069;-64
2022/06/23 07:23:56;;;;;;;6.43;4.38;;;22.10;99.90;;;;;;4999276;28;20050;-65
2022/06/23 07:26:28;;;;;;;6.75;4.65;;;22.20;99.90;;;;;;5011007;28;20084;-65
2022/06/23 07:29:00;;;;;;;7.43;4.75;;;22.20;99.90;;;;;;5010346;28;20124;-65
2022/06/23 07:31:35;;;;;;;7.20;4.88;;;22.40;99.90;;;;;;5010747;28;20064;-65
2022/06/23 07:34:05;;;;;;;5.03;4.35;;;22.50;99.90;;;;;;5009907;28;20095;-64
2022/06/23 07:36:53;;;;;;;9.20;4.95;;;22.70;99.90;;;;;;5027140;28;20117;-64
2022/06/23 07:39:23;;;;;;;5.70;4.70;;;22.80;99.90;;;;;;5067079;28;20503;-64
2022/06/23 07:42:23;;;;;;;9.32;4.85;;;22.90;99.90;;;;;;5068345;28;20088;-64
2022/06/23 07:44:56;;;;;;;6.25;4.35;;;23.00;99.90;;;;;;5027351;28;20099;-65
2022/06/23 07:47:23;;;;;;;6.88;3.70;;;23.00;99.90;;;;;;5026994;28;20045;-65
2022/06/23 07:49:49;;;;;;;5.72;4.30;;;23.20;99.90;;;;;;5010822;28;20491;-65
2022/06/23 07:52:17;;;;;;;7.00;3.97;;;23.30;99.90;;;;;;5026785;28;20038;-65
2022/06/23 07:54:44;;;;;;;8.30;3.90;;;23.40;99.90;;;;;;5010350;28;20115;-65
2022/06/23 07:57:12;;;;;;;5.20;3.70;;;23.50;99.90;;;;;;5010422;28;20132;-65
2022/06/23 07:59:45;;;;;;;4.65;3.55;;;23.70;99.90;;;;;;5010089;28;20049;-64
2022/06/23 08:02:20;;;;;;;6.40;3.55;;;23.90;99.90;;;;;;5009882;28;20045;-64
2022/06/23 08:05:07;;;;;;;7.28;3.53;;;24.00;99.90;;;;;;5010985;28;20554;-64
2022/06/23 08:07:34;;;;;;;4.07;3.20;;;24.20;99.90;;;;;;5010640;28;20053;-64
2022/06/23 08:10:15;;;;;;;5.28;3.20;;;24.40;99.90;;;;;;5030404;28;20116;-64
2022/06/23 08:12:54;;;;;;;6.72;3.90;;;24.70;99.90;;;;;;5030614;28;20041;-64
2022/06/23 08:18:24;;;;;;;4.93;3.20;;;24.90;99.90;;;;;;5028931;28;20102;-64
2022/06/23 08:21:05;;;;;;;5.97;3.45;;;25.00;99.90;;;;;;5045856;28;20113;-64
2022/06/23 08:23:38;;;;;;;6.50;4.55;;;25.10;99.90;;;;;;5070850;28;20588;-64
2022/06/23 08:26:07;;;;;;;5.93;3.05;;;25.20;99.90;;;;;;5072141;28;20064;-64
2022/06/23 08:28:34;;;;;;;7.75;3.15;;;25.30;99.90;;;;;;5071883;28;20041;-64
2022/06/23 08:31:03;;;;;;;4.60;3.00;;;25.50;99.90;;;;;;5072609;28;20037;-65
2022/06/23 08:33:31;;;;;;;3.80;3.10;;;25.70;99.40;;;;;;5069373;28;20048;-65
2022/06/23 08:35:58;;;;;;;6.22;3.50;;;25.80;99.00;;;;;;5070879;28;20394;-65
2022/06/23 08:38:36;;;;;;;5.95;3.25;;;25.90;98.70;;;;;;5052717;28;20491;-65
2022/06/23 08:41:24;;;;;;;3.80;2.95;;;26.00;98.60;;;;;;5072517;28;20043;-65
2022/06/23 08:43:58;;;;;;;5.88;3.13;;;26.10;98.50;;;;;;5071279;28;20051;-64
2022/06/23 08:46:35;;;;;;;5.65;3.42;;;26.20;98.20;;;;;;5072357;28;20519;-64
2022/06/23 08:49:24;;;;;;;7.38;3.38;;;26.40;98.40;;;;;;5071452;28;20544;-65
2022/06/23 08:51:50;;;;;;;8.43;3.55;;;26.50;98.30;;;;;;5054401;28;20676;-65
2022/06/23 08:54:23;;;;;;;5.65;3.17;;;26.50;98.30;;;;;;5071259;28;20044;-65
2022/06/23 08:57:22;;;;;;;7.20;3.17;;;26.70;97.60;;;;;;5071078;28;20083;-65
2022/06/23 09:00:26;;;;;;;4.20;3.00;;;26.80;97.50;;;;;;5064736;28;20044;-65
2022/06/23 09:03:19;;;;;;;5.63;3.03;;;26.90;97.50;;;;;;5068997;28;20052;-65
2022/06/23 09:05:56;;;;;;;;;;;27.00;96.80;;;;;;5071290;28;20044;-65
2022/06/23 09:08:39;;;;;;;4.32;2.30;;;27.10;96.90;;;;;;5069531;28;19917;-64
2022/06/23 09:11:23;;;;;;;4.07;2.28;;;27.20;95.90;;;;;;5070587;28;20101;-64
2022/06/23 09:13:57;;;;;;;5.32;2.60;;;27.20;96.00;;;;;;5072014;28;20074;-65
2022/06/23 09:16:39;;;;;;;5.75;3.03;;;27.30;95.40;;;;;;5070202;28;20519;-64
2022/06/23 09:19:35;;;;;;;5.22;2.58;;;27.40;95.00;;;;;;5071875;28;20036;-64
2022/06/23 09:22:47;;;;;;;8.55;2.70;;;27.40;95.30;;;;;;5012293;28;20049;-66
2022/06/23 09:25:20;;;;;;;5.60;2.65;;;27.70;95.10;;;;;;5029475;28;20049;-65
2022/06/23 09:28:17;;;;;;;3.75;2.70;;;27.90;95.10;;;;;;5012752;28;20107;-64
2022/06/23 09:30:56;;;;;;;7.50;3.00;;;28.00;94.90;;;;;;4915792;29;20130;-64
2022/06/23 09:33:50;;;;;;;4.20;2.30;;;28.20;94.10;;;;;;4931707;29;20194;-63
2022/06/23 09:36:43;;;;;;;3.83;2.42;;;28.30;95.10;;;;;;4932323;29;20503;-65
2022/06/23 09:39:52;;;;;;;5.45;2.85;;;28.50;94.50;;;;;;4931636;29;20096;-65
2022/06/23 09:42:44;;;;;;;4.55;2.70;;;28.60;93.70;;;;;;4915890;29;20092;-65
2022/06/23 09:45:30;;;;;;;5.40;2.53;;;28.60;92.50;;;;;;4916079;29;20446;-65
2022/06/23 09:48:37;;;;;;;6.18;2.63;;;28.70;92.50;;;;;;4931630;29;20107;-64
2022/06/23 09:51:27;;;;;;;6.22;2.90;;;28.70;91.90;;;;;;4931867;29;20047;-64
2022/06/23 09:54:15;;;;;;;4.55;2.72;;;28.80;92.40;;;;;;4931720;29;20079;-64
2022/06/23 09:57:08;;;;;;;4.82;2.60;;;29.10;92.30;;;;;;4877944;29;20075;-65
2022/06/23 10:00:04;;;;;;;6.85;2.75;;;29.20;92.40;;;;;;4904929;29;20057;-64
2022/06/23 10:02:34;;;;;;;3.63;2.20;;;29.40;92.70;;;;;;4911125;29;20131;-64
2022/06/23 10:05:37;;;;;;;6.28;2.40;;;29.50;91.80;;;;;;4911601;29;20048;-64
2022/06/23 10:08:21;;;;;;;4.65;2.50;;;29.70;91.90;;;;;;4955088;28;20574;-65
2022/06/23 10:10:51;;;;;;;4.82;2.53;;;29.80;91.20;;;;;;4988372;28;20042;-64
2022/06/23 10:14:03;;;;;;;3.88;2.38;;;29.80;90.10;;;;;;4973052;28;20050;-65
2022/06/23 10:16:38;;;;;;;5.43;2.47;;;29.60;89.70;;;;;;4950113;28;20058;-65
2022/06/23 10:19:45;;;;;;;9.35;2.60;;;29.60;88.70;;;;;;4989071;28;20065;-65
2022/06/23 10:22:11;;;;;;;5.93;2.35;;;29.60;90.10;;;;;;4971242;28;20189;-64
2022/06/23 10:24:57;;;;;;;3.28;2.55;;;29.90;90.30;;;;;;4972539;28;20038;-64
2022/06/23 10:27:28;;;;;;;6.68;2.65;;;30.00;90.20;;;;;;4984654;28;20082;-65
2022/06/23 10:30:06;;;;;;;5.43;2.42;;;30.10;89.60;;;;;;4970803;28;20460;-64
2022/06/23 10:32:43;;;;;;;4.63;2.42;;;30.10;89.80;;;;;;4972999;28;20046;-65
2022/06/23 10:35:18;;;;;;;5.38;2.35;;;30.30;89.20;;;;;;5069578;28;20127;-65
2022/06/23 10:37:47;;;;;;;4.20;2.40;;;30.20;88.50;;;;;;5068706;28;20122;-65
2022/06/23 10:40:26;;;;;;;4.40;2.50;;;30.30;88.50;;;;;;5070189;28;20060;-65
2022/06/23 10:43:11;;;;;;;4.20;2.70;;;30.40;89.20;;;;;;5070203;28;20063;-65
2022/06/23 10:45:49;;;;;;;5.15;2.40;;;30.60;89.40;;;;;;5069642;28;20483;-65
2022/06/23 10:48:34;;;;;;;4.68;2.60;;;30.80;89.20;;;;;;5069062;28;20036;-65
2022/06/23 10:51:43;;;;;;;6.63;2.40;;;31.00;87.30;;;;;;5070141;28;20029;-65
2022/06/23 10:54:46;;;;;;;5.35;2.30;;;30.90;87.30;;;;;;4995030;28;20057;-64
2022/06/23 10:57:48;;;;;;;5.75;2.20;;;31.00;86.80;;;;;;5010978;28;20053;-64
2022/06/23 11:00:35;;;;;;;4.32;2.50;;;31.20;88.10;;;;;;5011247;28;20045;-65
2022/06/23 11:03:00;;;;;;;5.45;2.50;;;31.30;85.10;;;;;;5028085;28;20073;-64
2022/06/23 11:05:42;;;;;;;3.50;1.95;;;31.30;85.00;;;;;;5027463;28;20460;-65
2022/06/23 11:08:40;;;;;;;3.78;2.15;;;31.30;85.70;;;;;;5027146;28;20071;-66
2022/06/23 11:11:27;;;;;;;4.65;2.33;;;31.20;83.80;;;;;;5026693;28;20042;-65
2022/06/23 11:13:52;;;;;;;3.63;2.40;;;31.10;84.80;;;;;;5011240;28;20049;-65
2022/06/23 11:16:45;;;;;;;4.88;2.58;;;31.10;84.80;;;;;;5027396;28;20079;-65
2022/06/23 11:19:54;;;;;;;4.72;2.55;;;31.10;84.10;;;;;;5026820;28;20502;-65
2022/06/23 11:22:36;;;;;;;6.40;2.40;;;31.10;83.60;;;;;;5010608;28;20052;-64
2022/06/23 11:25:08;;;;;;;4.00;2.10;;;31.10;84.50;;;;;;5027439;28;20115;-64
2022/06/23 11:27:58;;;;;;;5.05;2.15;;;31.30;84.40;;;;;;5026926;28;20109;-64
2022/06/23 11:30:48;;;;;;;4.75;2.45;;;31.40;84.30;;;;;;5037992;28;20463;-64
2022/06/23 11:33:44;;;;;;;6.57;2.10;;;31.50;84.10;;;;;;5069738;28;20032;-65
2022/06/23 11:36:57;;;;;;;7.80;2.47;;;31.60;83.50;;;;;;5069444;28;20051;-65
2022/06/23 11:39:28;;;;;;;2.42;2.00;;;31.70;83.30;;;;;;5010007;28;20568;-65
2022/06/23 11:42:12;;;;;;;2.40;1.63;;;31.50;82.70;;;;;;5026780;28;20511;-64
2022/06/23 11:44:37;;;;;;;4.63;2.10;;;31.40;82.90;;;;;;5027163;28;20044;-65
2022/06/23 11:47:25;;;;;;;3.80;1.75;;;31.40;82.30;;;;;;5027490;28;20491;-64
2022/06/23 11:50:01;;;;;;;4.38;2.20;;;31.20;79.50;;;;;;5021979;28;20054;-64
2022/06/23 11:52:47;;;;;;;3.85;1.90;;;30.90;77.10;;;;;;5009021;28;20071;-65
2022/06/23 11:55:36;;;;;;;5.45;1.90;;;30.80;78.50;;;;;;5009983;28;20060;-65
2022/06/23 11:58:20;;;;;;;6.00;1.73;;;30.60;77.70;;;;;;5010005;28;20120;-65
2022/06/23 12:01:00;;;;;;;3.40;1.67;;;30.70;77.60;;;;;;5026746;28;20120;-65
2022/06/23 12:04:12;;;;;;;2.13;1.52;;;30.70;76.90;;;;;;5025078;28;20099;-64
2022/06/23 12:07:20;;;;;;;3.90;1.60;;;30.60;77.10;;;;;;4987210;28;20468;-65
2022/06/23 12:10:12;;;;;;;3.65;1.50;;;30.60;75.90;;;;;;4985700;28;20133;-64
2022/06/23 12:12:39;;;;;;;1.90;1.50;;;30.50;75.60;;;;;;4971378;28;20096;-64
2022/06/23 12:15:06;;;;;;;5.32;1.42;;;30.30;75.90;;;;;;4985520;28;20081;-66
2022/06/23 12:17:47;;;;;;;3.72;1.88;;;30.50;76.40;;;;;;4967188;28;20184;-63
2022/06/23 12:20:26;;;;;;;2.67;1.40;;;30.40;75.90;;;;;;4970515;28;20130;-65
2022/06/23 12:23:07;;;;;;;1.98;1.40;;;30.30;75.40;;;;;;4987170;28;20046;-64
2022/06/23 12:26:00;;;;;;;4.35;1.80;;;30.20;75.70;;;;;;4986886;28;20125;-64
2022/06/23 12:28:47;;;;;;;4.97;1.58;;;30.30;75.90;;;;;;4987353;28;20046;-64
2022/06/23 12:31:44;;;;;;;2.17;1.50;;;30.20;75.70;;;;;;4987678;28;20494;-64
2022/06/23 12:34:30;;;;;;;3.53;1.60;;;30.30;76.20;;;;;;4970658;28;20130;-65
2022/06/23 12:36:58;;;;;;;4.32;1.50;;;30.40;75.00;;;;;;4987302;28;20050;-65
2022/06/23 12:39:37;;;;;;;3.50;1.70;;;30.30;75.30;;;;;;4970199;28;20543;-64
2022/06/23 12:42:11;;;;;;;2.53;1.60;;;30.30;74.40;;;;;;4970516;28;20457;-64
2022/06/23 12:44:49;;;;;;;2.45;1.70;;;30.30;74.70;;;;;;5060134;28;20037;-64
2022/06/23 12:47:39;;;;;;;4.25;1.60;;;30.30;74.70;;;;;;5068883;28;20036;-65
2022/06/23 12:50:25;;;;;;;3.90;1.58;;;30.40;74.70;;;;;;5067566;28;20033;-65
2022/06/23 12:53:00;;;;;;;5.32;1.90;;;30.50;74.70;;;;;;5068234;28;20052;-65
2022/06/23 12:55:43;;;;;;;4.13;1.83;;;30.50;73.40;;;;;;5070218;28;20487;-64
2022/06/23 12:58:34;;;;;;;4.18;1.50;;;30.50;72.50;;;;;;5072564;28;20509;-64
2022/06/23 13:01:12;;;;;;;4.13;1.90;;;30.40;73.20;;;;;;5069756;28;20487;-65
2022/06/23 13:04:04;;;;;;;6.22;1.77;;;30.40;73.70;;;;;;5072073;28;20048;-65
2022/06/23 13:06:44;;;;;;;;;;;30.40;73.40;;;;;;5071524;28;20115;-64
2022/06/23 13:09:15;;;;;;;4.97;2.00;;;30.30;72.10;;;;;;5070935;28;19973;-64
2022/06/23 13:11:46;;;;;;;5.22;1.95;;;30.30;73.40;;;;;;5072096;28;20127;-65
2022/06/23 13:14:37;;;;;;;4.03;1.88;;;30.30;73.00;;;;;;5071908;28;20028;-64
2022/06/23 13:17:21;;;;;;;4.80;1.70;;;30.30;72.90;;;;;;5071669;28;20040;-65
2022/06/23 13:20:07;;;;;;;2.97;1.90;;;30.30;73.60;;;;;;5071915;28;20372;-65
2022/06/23 13:22:46;;;;;;;3.65;1.77;;;30.20;73.30;;;;;;5070861;28;20047;-64
2022/06/23 13:25:25;;;;;;;4.65;1.80;;;30.20;73.00;;;;;;5071818;28;20383;-65
2022/06/23 13:27:54;;;;;;;2.13;1.65;;;30.10;72.40;;;;;;5070758;28;20060;-65
2022/06/23 13:30:23;;;;;;;3.85;1.73;;;30.10;72.50;;;;;;5071580;28;20561;-63
2022/06/23 13:32:58;;;;;;;4.88;1.83;;;30.10;73.40;;;;;;5071111;28;20479;-64
2022/06/23 13:35:32;;;;;;;3.35;2.17;;;30.10;73.80;;;;;;5070399;28;20040;-64
2022/06/23 13:38:18;;;;;;;3.83;2.10;;;30.10;74.00;;;;;;5069795;28;20055;-64
2022/06/23 13:41:09;;;;;;;5.53;2.38;;;30.20;74.90;;;;;;5066854;28;20040;-63
2022/06/23 13:44:18;;;;;;;5.03;2.10;;;30.30;74.80;;;;;;5069411;28;20048;-65
2022/06/23 13:46:55;;;;;;;5.20;2.08;;;30.30;73.80;;;;;;5011364;28;20180;-64
2022/06/23 13:49:27;;;;;;;3.80;2.13;;;30.30;73.70;;;;;;5014852;28;20037;-65
2022/06/23 13:52:04;;;;;;;3.92;2.20;;;30.30;73.00;;;;;;5011519;28;20052;-64
2022/06/23 13:54:37;;;;;;;3.88;2.00;;;30.30;73.50;;;;;;5027290;28;20049;-65
2022/06/23 13:57:30;;;;;;;5.43;2.33;;;30.20;73.50;;;;;;5028496;28;20396;-65
2022/06/23 14:00:01;;;;;;;4.50;2.40;;;30.30;73.70;;;;;;5008639;28;20498;-63
2022/06/23 14:03:05;;;;;;;4.05;2.15;;;30.20;73.60;;;;;;5007330;28;20049;-65
2022/06/23 14:05:36;;;;;;;3.13;2.10;;;30.10;74.00;;;;;;5005174;28;20498;-64